DNJO

Yakubu Gowon Airport

Jos, Nigeria
METAR DNJO 151900Z 08012KT 1500 HZ NSC 21/M04 Q1020
Observed Flight Rules
Feb-15 @ 19:00 UTC (53 minutes ago) Instrument Flight Rules
Wind Visibility Clouds Conditions
80° at 12 knots 1,497 meters
  • Clear skies
  • Haze
Temperatures Readings
Current 21°C / 70°F
Dewpoint -4°C / 25°F
Humidity 18%
Altimeter 30.12" Hg
Pressure 1019.92 hPa
Elevation 1285
METAR DNJO 151900Z 08012KT 1500 HZ NSC 21/M04 Q1020
Observed Flight Rules
Feb-15 @ 19:00 UTC
(53 minutes ago)
LIFR
Wind Visibility
80° at 12 knots 1,497 meters
Clouds
  • Clear skies
Conditions
  • Haze
Temperature Dewpoint
21°C / 70°F -4°C / 25°F
Humidity Altimeter Pressure
18% 30.12" Hg 1019.92 hPa